Time;durP1;ratioP1;P1;durP2;ratioP2;P2;SDS_P1;SDS_P2;PMS_P1;PMS_P2;Temp;Humidity;BMP_temperature;BMP_pressure;BME280_temperature;BME280_humidity;BME280_pressure;Samples;Min_cycle;Max_cycle;Signal;HPM_P1;HPM_P2
2021/04/05 00:01:28;;;;;;;22.73;10.70;;;5.00;99.90;;;;;;5027856;28;20042;-78
2021/04/05 00:03:54;;;;;;;21.10;10.18;;;4.90;99.90;;;;;;5028971;28;20030;-78
2021/04/05 00:06:21;;;;;;;22.20;12.48;;;4.90;99.90;;;;;;5011220;28;20041;-78
2021/04/05 00:08:48;;;;;;;22.27;11.25;;;4.90;99.90;;;;;;4995412;28;20126;-78
2021/04/05 00:11:14;;;;;;;21.70;11.48;;;4.90;99.90;;;;;;5011615;28;20057;-78
2021/04/05 00:13:41;;;;;;;24.55;11.38;;;4.90;99.90;;;;;;5027955;28;20042;-78
2021/04/05 00:16:08;;;;;;;25.15;11.95;;;4.90;99.90;;;;;;4995399;28;20079;-77
2021/04/05 00:18:33;;;;;;;29.73;14.25;;;4.90;99.90;;;;;;5011253;28;20034;-77
2021/04/05 00:21:09;;;;;;;22.13;12.75;;;4.90;99.90;;;;;;5029413;28;20113;-77
2021/04/05 00:23:35;;;;;;;24.70;13.27;;;4.90;99.90;;;;;;5011318;28;20037;-77
2021/04/05 00:26:02;;;;;;;24.20;11.88;;;4.90;99.90;;;;;;5028955;28;20030;-78
2021/04/05 00:28:28;;;;;;;25.45;12.77;;;4.90;99.90;;;;;;5027641;28;20033;-78
2021/04/05 00:30:54;;;;;;;31.42;13.57;;;5.00;99.90;;;;;;5011173;28;20521;-78
2021/04/05 00:33:21;;;;;;;28.27;12.32;;;5.00;99.90;;;;;;4994677;28;20367;-77
2021/04/05 00:35:47;;;;;;;22.50;12.30;;;4.90;99.90;;;;;;5028600;28;20026;-77
2021/04/05 00:38:13;;;;;;;27.65;12.93;;;4.90;99.90;;;;;;5027378;28;20049;-77
2021/04/05 00:40:51;;;;;;;28.15;13.13;;;4.90;99.90;;;;;;5027547;28;20034;-78
2021/04/05 00:43:17;;;;;;;23.75;12.68;;;4.90;99.90;;;;;;5028451;28;20045;-77
2021/04/05 00:45:45;;;;;;;27.25;12.77;;;5.00;99.90;;;;;;5027351;28;20033;-78
2021/04/05 00:48:12;;;;;;;26.23;13.80;;;5.00;99.90;;;;;;5010634;28;20041;-77
2021/04/05 00:50:40;;;;;;;23.30;11.75;;;5.00;99.90;;;;;;5028456;28;20493;-77
2021/04/05 00:53:08;;;;;;;30.60;15.15;;;4.90;99.90;;;;;;4994271;28;20029;-77
2021/04/05 00:55:34;;;;;;;25.85;11.88;;;4.90;99.90;;;;;;5010785;28;20033;-77
2021/04/05 00:58:00;;;;;;;27.85;11.82;;;4.90;99.90;;;;;;5010669;28;20034;-77
2021/04/05 01:00:36;;;;;;;30.50;15.20;;;4.90;99.90;;;;;;5028327;28;20065;-77
2021/04/05 01:03:03;;;;;;;24.70;12.95;;;5.00;99.90;;;;;;5027969;28;20037;-78
2021/04/05 01:05:50;;;;;;;29.10;12.93;;;5.00;99.90;;;;;;5010251;28;20556;-77
2021/04/05 01:08:17;;;;;;;32.63;13.77;;;5.00;99.90;;;;;;4986127;28;20174;-78
2021/04/05 01:10:43;;;;;;;30.80;13.30;;;5.00;99.90;;;;;;4970187;28;20039;-77
2021/04/05 01:13:09;;;;;;;24.60;13.32;;;4.90;99.90;;;;;;4986272;28;20046;-77
2021/04/05 01:15:35;;;;;;;22.27;12.18;;;4.80;99.90;;;;;;4986332;28;20035;-78
2021/04/05 01:18:01;;;;;;;37.03;16.27;;;4.80;99.90;;;;;;4986277;28;20079;-77
2021/04/05 01:20:28;;;;;;;28.52;13.88;;;4.80;99.90;;;;;;4986282;28;20035;-77
2021/04/05 01:22:54;;;;;;;34.25;15.48;;;4.90;99.90;;;;;;4986143;28;20031;-77
2021/04/05 01:25:21;;;;;;;26.50;13.27;;;4.90;99.90;;;;;;4986314;28;20093;-77
2021/04/05 01:27:50;;;;;;;25.13;12.70;;;4.90;99.90;;;;;;4986074;28;20151;-78
2021/04/05 01:30:33;;;;;;;26.05;13.50;;;5.00;99.90;;;;;;4986321;28;20034;-77
2021/04/05 01:33:18;;;;;;;33.40;15.10;;;5.00;99.90;;;;;;4985885;28;20538;-77
2021/04/05 01:35:52;;;;;;;27.73;14.07;;;5.10;99.90;;;;;;4969548;28;20484;-77
2021/04/05 01:38:20;;;;;;;26.35;13.65;;;5.00;99.90;;;;;;4986021;28;20039;-77
2021/04/05 01:40:58;;;;;;;29.38;14.98;;;5.10;99.90;;;;;;4985868;28;20030;-77
2021/04/05 01:43:24;;;;;;;38.35;15.05;;;5.20;99.90;;;;;;4985740;28;20061;-78
2021/04/05 01:45:54;;;;;;;26.08;14.68;;;5.10;99.90;;;;;;5003895;28;20042;-77
2021/04/05 01:48:25;;;;;;;28.67;15.88;;;5.20;99.90;;;;;;5009555;28;20041;-77
2021/04/05 01:51:02;;;;;;;30.30;13.98;;;5.30;99.90;;;;;;4993178;28;20037;-77
2021/04/05 01:53:27;;;;;;;24.00;12.13;;;5.40;99.90;;;;;;4993360;28;20057;-78
2021/04/05 01:55:56;;;;;;;34.85;13.57;;;5.40;99.90;;;;;;5009435;28;20029;-77
2021/04/05 01:58:22;;;;;;;34.20;14.88;;;5.60;99.90;;;;;;5025757;28;20038;-78
2021/04/05 02:00:49;;;;;;;31.55;14.15;;;5.70;99.90;;;;;;5027213;28;20022;-78
2021/04/05 02:03:15;;;;;;;36.90;16.77;;;5.70;99.90;;;;;;5009058;28;20030;-79
2021/04/05 02:06:03;;;;;;;30.85;14.20;;;5.90;99.90;;;;;;5026581;28;20096;-77
2021/04/05 02:08:30;;;;;;;34.30;14.88;;;5.80;99.90;;;;;;4985031;28;20094;-77
2021/04/05 02:11:02;;;;;;;29.02;13.82;;;5.90;99.90;;;;;;4985389;28;20042;-77
2021/04/05 02:13:28;;;;;;;29.95;14.07;;;5.90;99.90;;;;;;4969004;28;20044;-77
2021/04/05 02:15:54;;;;;;;33.47;15.88;;;5.90;99.90;;;;;;4985227;28;20027;-77
2021/04/05 02:18:25;;;;;;;30.05;13.88;;;6.00;99.90;;;;;;4985342;28;20042;-78
2021/04/05 02:20:51;;;;;;;33.35;15.43;;;6.00;99.90;;;;;;4984772;28;20526;-77
2021/04/05 02:23:18;;;;;;;36.17;14.75;;;6.00;99.90;;;;;;4984848;28;20090;-77
2021/04/05 02:28:31;;;;;;;33.20;14.80;;;6.00;99.90;;;;;;4968830;28;20046;-78
2021/04/05 02:30:57;;;;;;;28.23;12.65;;;6.00;99.90;;;;;;4968831;28;20043;-78
2021/04/05 02:33:22;;;;;;;37.13;15.15;;;6.00;99.90;;;;;;4984744;28;20046;-77
2021/04/05 02:35:48;;;;;;;33.47;14.48;;;6.00;99.90;;;;;;4968396;28;20130;-77
2021/04/05 02:38:15;;;;;;;31.08;15.52;;;6.00;99.90;;;;;;4985069;28;20078;-77
2021/04/05 02:40:42;;;;;;;30.65;12.98;;;6.00;99.90;;;;;;4968741;28;20026;-77
2021/04/05 02:43:10;;;;;;;29.98;13.57;;;6.00;99.90;;;;;;4984627;28;20085;-78
2021/04/05 02:45:36;;;;;;;33.67;15.05;;;6.00;99.90;;;;;;4986647;28;20042;-78
2021/04/05 02:48:03;;;;;;;34.00;13.35;;;5.90;99.90;;;;;;5005178;28;20042;-78
2021/04/05 02:50:31;;;;;;;34.72;14.20;;;5.90;99.90;;;;;;5005001;28;20097;-77
2021/04/05 02:52:59;;;;;;;35.42;15.60;;;5.90;99.90;;;;;;5021557;28;20034;-78
2021/04/05 02:55:25;;;;;;;39.72;14.73;;;5.90;99.90;;;;;;5005025;28;20030;-78
2021/04/05 02:57:52;;;;;;;32.17;14.13;;;5.90;99.90;;;;;;5006460;28;20035;-77
2021/04/05 03:00:19;;;;;;;30.92;13.43;;;5.90;99.90;;;;;;5006344;28;20031;-78
2021/04/05 03:02:51;;;;;;;31.52;15.05;;;5.90;99.90;;;;;;4988732;28;20093;-78
2021/04/05 03:05:19;;;;;;;32.80;14.40;;;6.00;99.90;;;;;;5005929;28;20027;-77
2021/04/05 03:07:45;;;;;;;36.47;14.00;;;6.00;99.90;;;;;;5001643;28;20043;-78
2021/04/05 03:10:13;;;;;;;31.63;13.75;;;6.00;99.90;;;;;;4985558;28;20035;-78
2021/04/05 03:12:40;;;;;;;35.00;14.52;;;6.00;99.90;;;;;;5001701;28;20034;-78
2021/04/05 03:15:09;;;;;;;36.80;13.65;;;6.00;99.90;;;;;;4985571;28;20035;-77
2021/04/05 03:17:35;;;;;;;28.13;12.85;;;6.10;99.90;;;;;;4985492;28;20035;-77
2021/04/05 03:20:04;;;;;;;34.90;14.73;;;6.10;99.90;;;;;;4985506;28;20041;-79
2021/04/05 03:22:30;;;;;;;45.10;15.10;;;6.10;99.90;;;;;;5001474;28;20049;-77
2021/04/05 03:24:55;;;;;;;36.92;14.05;;;6.10;99.90;;;;;;5001566;28;20464;-77
2021/04/05 03:27:21;;;;;;;36.58;12.88;;;6.10;99.90;;;;;;4985521;28;20051;-78
2021/04/05 03:29:48;;;;;;;32.05;13.73;;;6.20;99.90;;;;;;4985422;28;20039;-78
2021/04/05 03:32:20;;;;;;;28.65;14.40;;;6.20;99.90;;;;;;4985486;28;20114;-78
2021/04/05 03:34:53;;;;;;;32.38;14.60;;;6.10;99.90;;;;;;4988163;28;20035;-78
2021/04/05 03:37:22;;;;;;;37.60;15.50;;;6.20;99.90;;;;;;4989293;28;20121;-78
2021/04/05 03:39:50;;;;;;;32.70;13.90;;;6.10;99.90;;;;;;5005592;28;20035;-78
2021/04/05 03:42:29;;;;;;;39.72;16.10;;;6.10;99.90;;;;;;4989304;28;20031;-77
2021/04/05 03:45:13;;;;;;;38.03;15.05;;;6.10;99.90;;;;;;4989239;28;20078;-78
2021/04/05 03:48:05;;;;;;;34.35;14.40;;;6.10;99.90;;;;;;4989264;28;20045;-77
2021/04/05 03:50:40;;;;;;;31.10;12.75;;;6.10;99.90;;;;;;5005416;28;20041;-78
2021/04/05 03:53:24;;;;;;;38.38;16.50;;;6.10;99.90;;;;;;4988854;28;20034;-78
2021/04/05 03:55:56;;;;;;;31.52;13.98;;;6.10;99.90;;;;;;4972981;28;20042;-78
2021/04/05 03:58:26;;;;;;;45.03;15.35;;;6.10;99.90;;;;;;4990397;28;20058;-77
2021/04/05 04:00:54;;;;;;;39.67;17.63;;;6.10;99.90;;;;;;5005066;28;20045;-78
2021/04/05 04:03:32;;;;;;;36.90;15.40;;;6.10;99.90;;;;;;4972762;28;20067;-78
2021/04/05 04:06:02;;;;;;;35.33;15.90;;;6.20;99.90;;;;;;5004695;28;20031;-77
2021/04/05 04:08:35;;;;;;;32.53;14.90;;;6.20;99.90;;;;;;4988662;28;20451;-78
2021/04/05 04:11:06;;;;;;;32.63;14.85;;;6.20;99.90;;;;;;4989921;28;20058;-78
2021/04/05 04:13:38;;;;;;;39.40;15.73;;;6.20;99.90;;;;;;4988506;28;20073;-77
2021/04/05 04:16:05;;;;;;;39.25;17.52;;;6.20;99.90;;;;;;4988420;28;20039;-78
2021/04/05 04:18:31;;;;;;;35.10;16.20;;;6.30;99.90;;;;;;5004788;28;20039;-77
2021/04/05 04:20:58;;;;;;;38.90;15.38;;;6.30;99.90;;;;;;4988342;28;20041;-78
2021/04/05 04:23:24;;;;;;;34.63;14.57;;;6.20;99.90;;;;;;4988328;28;20045;-78
2021/04/05 04:25:53;;;;;;;40.95;15.82;;;6.30;99.90;;;;;;5004679;28;20382;-78
2021/04/05 04:28:18;;;;;;;42.90;17.92;;;6.30;99.90;;;;;;4988269;28;20110;-78
2021/04/05 04:30:44;;;;;;;44.17;16.55;;;6.30;99.90;;;;;;4988214;28;20065;-78
2021/04/05 04:33:11;;;;;;;37.45;15.23;;;6.30;99.90;;;;;;4988178;28;20110;-78
2021/04/05 04:35:38;;;;;;;43.53;15.82;;;6.30;99.90;;;;;;4987939;28;20070;-78
2021/04/05 04:38:05;;;;;;;36.60;15.82;;;6.30;99.90;;;;;;5004352;28;20073;-78
2021/04/05 04:40:33;;;;;;;38.65;15.48;;;6.30;99.90;;;;;;4988123;28;20027;-78
2021/04/05 04:43:00;;;;;;;34.92;15.18;;;6.40;99.90;;;;;;4988076;28;20070;-77
2021/04/05 04:45:27;;;;;;;30.80;13.27;;;6.40;99.90;;;;;;4987548;28;20041;-77
2021/04/05 04:47:55;;;;;;;34.10;14.95;;;6.40;99.90;;;;;;4987956;28;20062;-78
2021/04/05 04:50:21;;;;;;;41.67;15.95;;;6.40;99.90;;;;;;4989281;28;20037;-78
2021/04/05 04:52:47;;;;;;;36.65;15.88;;;6.50;99.90;;;;;;4987668;28;20035;-78
2021/04/05 04:55:15;;;;;;;42.30;15.60;;;6.50;99.90;;;;;;4987802;28;20098;-78
2021/04/05 04:57:40;;;;;;;36.03;15.95;;;6.50;99.90;;;;;;4987786;28;20031;-78
2021/04/05 05:00:07;;;;;;;44.60;16.88;;;6.50;99.90;;;;;;4988928;28;20464;-78
2021/04/05 05:02:41;;;;;;;30.02;16.02;;;6.60;99.90;;;;;;4989031;28;20034;-78
2021/04/05 05:05:09;;;;;;;37.58;14.57;;;6.60;99.90;;;;;;5005511;28;20369;-78
2021/04/05 05:07:36;;;;;;;36.25;13.75;;;6.60;99.90;;;;;;4999297;28;20046;-78
2021/04/05 05:10:06;;;;;;;34.97;14.57;;;6.60;99.90;;;;;;5023395;28;20081;-78
2021/04/05 05:12:33;;;;;;;44.72;16.23;;;6.60;99.90;;;;;;5008263;28;20041;-78
2021/04/05 05:14:59;;;;;;;34.53;15.20;;;6.70;99.90;;;;;;5023376;28;20030;-79
2021/04/05 05:17:26;;;;;;;34.60;13.70;;;6.70;99.90;;;;;;5023332;28;20037;-78
2021/04/05 05:19:52;;;;;;;31.98;14.10;;;6.60;99.90;;;;;;5023349;28;20049;-78
2021/04/05 05:22:20;;;;;;;32.92;13.95;;;6.70;99.90;;;;;;5006676;28;20026;-78
2021/04/05 05:24:47;;;;;;;31.85;13.85;;;6.70;99.90;;;;;;5006732;28;20034;-78
2021/04/05 05:27:14;;;;;;;31.42;12.65;;;6.70;99.90;;;;;;5023075;28;20032;-78
2021/04/05 05:29:41;;;;;;;28.77;11.63;;;6.70;99.90;;;;;;5006816;28;20053;-78
2021/04/05 05:32:08;;;;;;;28.83;11.73;;;6.70;99.90;;;;;;5006590;28;20022;-78
2021/04/05 05:34:35;;;;;;;31.98;12.65;;;6.80;99.90;;;;;;5007946;28;20474;-78
2021/04/05 05:37:01;;;;;;;29.33;12.48;;;6.80;99.90;;;;;;5022591;28;20035;-78
2021/04/05 05:39:27;;;;;;;31.15;11.85;;;6.80;99.90;;;;;;5022324;28;20018;-78
2021/04/05 05:42:07;;;;;;;27.85;11.65;;;6.80;99.90;;;;;;5007169;28;20030;-78
2021/04/05 05:44:42;;;;;;;31.05;11.65;;;6.80;99.90;;;;;;5022224;28;20030;-78
2021/04/05 05:47:45;;;;;;;29.00;13.00;;;6.80;99.90;;;;;;5022256;28;20027;-78
2021/04/05 05:50:31;;;;;;;26.35;10.75;;;6.80;99.90;;;;;;5021920;28;20046;-80
2021/04/05 05:53:22;;;;;;;29.77;12.27;;;6.90;99.90;;;;;;5002700;28;20061;-80
2021/04/05 05:56:04;;;;;;;27.63;12.93;;;6.90;99.90;;;;;;5005557;28;20045;-80
2021/04/05 05:58:51;;;;;;;29.48;13.25;;;6.90;99.90;;;;;;5007607;28;20084;-80
2021/04/05 06:01:23;;;;;;;6.45;1.33;;;6.80;99.90;;;;;;5006151;28;20069;-79
2021/04/05 06:03:48;;;;;;;3.00;0.32;;;6.20;99.90;;;;;;5005763;28;20031;-79
2021/04/05 06:06:18;;;;;;;3.00;0.70;;;6.00;99.90;;;;;;5021429;28;20030;-79
2021/04/05 06:09:04;;;;;;;;;;;5.80;99.90;;;;;;5022356;28;20070;-79
2021/04/05 06:11:45;;;;;;;2.13;0.20;;;5.70;99.90;;;;;;5019954;28;19913;-79
2021/04/05 06:14:17;;;;;;;1.50;0.20;;;5.60;99.90;;;;;;5022064;28;20108;-79
2021/04/05 06:16:51;;;;;;;2.45;0.20;;;5.60;99.90;;;;;;5008414;28;20034;-79
2021/04/05 06:19:49;;;;;;;0.93;0.17;;;5.50;99.90;;;;;;5026056;28;20029;-79
2021/04/05 06:22:30;;;;;;;2.20;0.20;;;5.40;99.90;;;;;;5007720;28;20034;-78
2021/04/05 06:25:25;;;;;;;0.70;0.10;;;5.30;99.90;;;;;;5015172;28;20403;-78
2021/04/05 06:28:03;;;;;;;1.10;0.10;;;5.20;99.90;;;;;;5000439;28;20132;-79
2021/04/05 06:30:48;;;;;;;2.88;0.10;;;5.10;99.90;;;;;;5008244;28;20045;-79
2021/04/05 06:33:26;;;;;;;4.18;0.35;;;5.00;99.90;;;;;;5024619;28;20101;-79
2021/04/05 06:36:06;;;;;;;0.25;0.00;;;5.00;99.90;;;;;;5024048;28;20041;-78
2021/04/05 06:38:37;;;;;;;1.27;0.10;;;5.00;99.90;;;;;;5024486;28;20039;-79
2021/04/05 06:41:36;;;;;;;3.63;0.25;;;4.90;99.90;;;;;;5024430;28;20088;-79
2021/04/05 06:44:23;;;;;;;2.08;0.10;;;4.90;99.90;;;;;;4957280;28;20096;-79
2021/04/05 06:47:13;;;;;;;1.27;0.00;;;4.90;99.90;;;;;;5008206;28;20053;-79
2021/04/05 06:49:47;;;;;;;1.58;0.00;;;4.90;99.90;;;;;;5025369;28;20061;-79
2021/04/05 06:52:47;;;;;;;2.08;0.10;;;4.90;99.90;;;;;;5015072;28;20030;-79
2021/04/05 06:55:37;;;;;;;3.40;0.15;;;4.90;99.90;;;;;;5017123;28;20034;-79
2021/04/05 06:58:19;;;;;;;0.30;0.00;;;4.80;99.90;;;;;;5024196;28;20033;-79
2021/04/05 07:01:10;;;;;;;2.05;0.10;;;4.90;99.90;;;;;;5024149;28;20037;-78
2021/04/05 07:04:12;;;;;;;3.25;0.20;;;4.80;99.90;;;;;;5007438;28;20026;-79
2021/04/05 07:06:46;;;;;;;4.20;0.10;;;4.80;99.90;;;;;;5003723;28;20038;-79
2021/04/05 07:09:24;;;;;;;4.57;0.55;;;4.90;99.90;;;;;;4971681;28;20100;-79
2021/04/05 07:12:28;;;;;;;2.30;0.25;;;4.80;99.90;;;;;;5004018;28;20525;-78
2021/04/05 07:15:08;;;;;;;1.85;0.13;;;4.90;99.90;;;;;;4981350;28;20042;-78
2021/04/05 07:17:46;;;;;;;2.13;0.17;;;4.90;99.90;;;;;;4993385;28;20060;-79
2021/04/05 07:20:22;;;;;;;2.42;0.20;;;4.90;99.90;;;;;;5019468;28;20029;-78
2021/04/05 07:23:11;;;;;;;2.42;0.20;;;4.80;99.90;;;;;;5005266;28;20093;-78
2021/04/05 07:25:59;;;;;;;5.32;0.10;;;4.60;99.90;;;;;;5003272;28;20041;-78
2021/04/05 07:28:54;;;;;;;2.17;0.20;;;4.50;99.90;;;;;;5005416;28;20034;-78
2021/04/05 07:31:44;;;;;;;1.63;0.30;;;4.50;99.90;;;;;;5009344;28;20121;-78
2021/04/05 07:34:29;;;;;;;;;;;4.50;99.90;;;;;;4987367;28;20521;-78
2021/04/05 07:37:03;;;;;;;7.13;0.20;;;4.40;99.90;;;;;;5020985;28;20071;-78
2021/04/05 07:39:37;;;;;;;0.50;0.00;;;4.40;99.90;;;;;;5005223;28;20060;-78
2021/04/05 07:42:12;;;;;;;0.65;0.00;;;4.30;99.90;;;;;;4999657;28;20033;-78
2021/04/05 07:44:57;;;;;;;1.40;0.08;;;4.30;99.90;;;;;;5022618;28;20026;-79
2021/04/05 07:47:40;;;;;;;0.77;0.08;;;4.30;99.90;;;;;;5009250;28;20061;-78
2021/04/05 07:50:36;;;;;;;0.30;0.00;;;4.20;99.90;;;;;;5009272;28;20129;-78
2021/04/05 07:53:11;;;;;;;2.25;0.10;;;4.20;99.90;;;;;;5004578;28;20098;-78
2021/04/05 07:55:39;;;;;;;0.47;0.00;;;4.10;99.90;;;;;;4999206;28;20133;-78
2021/04/05 07:58:32;;;;;;;2.45;0.10;;;4.10;99.90;;;;;;4990016;28;20136;-78
2021/04/05 08:01:21;;;;;;;7.75;0.20;;;3.90;99.90;;;;;;5016402;28;20034;-78
2021/04/05 08:04:05;;;;;;;3.78;0.20;;;3.70;99.90;;;;;;4988558;28;20038;-78
2021/04/05 08:06:52;;;;;;;8.75;0.30;;;3.70;99.90;;;;;;5033725;22;20038;-79
2021/04/05 08:09:24;;;;;;;7.55;0.38;;;3.60;99.90;;;;;;5066286;28;20115;-78
2021/04/05 08:12:26;;;;;;;7.13;0.30;;;3.50;99.90;;;;;;5059151;28;20060;-79
2021/04/05 08:15:11;;;;;;;8.85;0.30;;;3.40;99.90;;;;;;5059761;28;20049;-78
2021/04/05 08:17:50;;;;;;;6.82;0.40;;;3.50;99.90;;;;;;5079872;28;20029;-79
2021/04/05 08:20:29;;;;;;;14.70;0.75;;;3.40;99.90;;;;;;5067950;28;20038;-78
2021/04/05 08:23:26;;;;;;;12.48;0.90;;;3.50;99.90;;;;;;5061593;28;20504;-79
2021/04/05 08:26:00;;;;;;;10.48;0.40;;;3.60;99.90;;;;;;5047691;28;20122;-79
2021/04/05 08:28:51;;;;;;;18.80;0.77;;;3.60;99.90;;;;;;5074856;28;20041;-79
2021/04/05 08:31:46;;;;;;;7.13;0.73;;;3.70;99.90;;;;;;5062177;28;20122;-78
2021/04/05 08:34:28;;;;;;;12.98;0.93;;;3.70;99.90;;;;;;5035570;28;20039;-79
2021/04/05 08:37:19;;;;;;;11.50;0.40;;;3.70;99.90;;;;;;5077818;28;20480;-78
2021/04/05 08:40:05;;;;;;;14.77;1.58;;;3.70;99.90;;;;;;5066079;28;20134;-79
2021/04/05 08:42:44;;;;;;;5.93;0.45;;;4.00;99.90;;;;;;5042982;28;20039;-79
2021/04/05 08:45:12;;;;;;;8.48;0.50;;;4.00;99.90;;;;;;5061472;28;20028;-79
2021/04/05 08:47:42;;;;;;;11.75;0.35;;;4.10;99.90;;;;;;5062913;28;20035;-79
2021/04/05 08:50:11;;;;;;;7.53;0.40;;;4.20;99.90;;;;;;5060273;28;20082;-78
2021/04/05 08:52:41;;;;;;;6.57;0.40;;;4.40;99.90;;;;;;5049955;28;20092;-78
2021/04/05 08:55:10;;;;;;;7.13;0.40;;;4.70;99.90;;;;;;5065515;28;20032;-78
2021/04/05 08:57:55;;;;;;;14.45;0.43;;;4.70;99.90;;;;;;5068447;28;20035;-78
2021/04/05 09:00:23;;;;;;;8.25;0.85;;;4.60;99.90;;;;;;5077824;28;20020;-79
2021/04/05 09:02:58;;;;;;;6.50;0.40;;;4.60;99.90;;;;;;5049359;28;20043;-78
2021/04/05 09:05:26;;;;;;;6.35;0.30;;;4.50;99.90;;;;;;5061666;28;20032;-77
2021/04/05 09:07:54;;;;;;;10.35;0.77;;;4.40;99.90;;;;;;5052513;28;20036;-77
2021/04/05 09:10:25;;;;;;;4.68;0.40;;;4.50;99.90;;;;;;5063918;28;20060;-78
2021/04/05 09:12:51;;;;;;;;;;;4.70;99.90;;;;;;5067939;28;20131;-79
2021/04/05 09:15:16;;;;;;;3.42;0.30;;;4.90;99.90;;;;;;5065787;28;19908;-77
2021/04/05 09:18:14;;;;;;;6.93;0.30;;;4.70;99.90;;;;;;5065432;28;20060;-78
2021/04/05 09:21:14;;;;;;;5.38;0.52;;;4.50;99.90;;;;;;5065697;28;20033;-78
2021/04/05 09:24:22;;;;;;;4.20;0.30;;;4.40;99.90;;;;;;5073238;28;20036;-78
2021/04/05 09:27:14;;;;;;;3.30;0.20;;;4.20;99.90;;;;;;5065918;28;20047;-78
2021/04/05 09:30:04;;;;;;;4.28;0.25;;;3.90;99.90;;;;;;5064500;28;20040;-78
2021/04/05 09:32:44;;;;;;;3.75;0.10;;;3.20;99.90;;;;;;5065983;28;20092;-78
2021/04/05 09:35:21;;;;;;;;;;;3.50;99.90;;;;;;5079183;28;20444;-78
2021/04/05 09:38:12;;;;;;;0.88;0.10;;;3.70;99.90;;;;;;5082959;28;19915;-78
2021/04/05 09:40:47;;;;;;;0.57;0.00;;;3.80;99.90;;;;;;5063263;28;20059;-78
2021/04/05 09:43:31;;;;;;;1.55;0.10;;;3.70;99.90;;;;;;5064776;28;20051;-78
2021/04/05 09:46:03;;;;;;;0.65;0.00;;;3.60;99.90;;;;;;5066671;28;20032;-79
2021/04/05 09:48:31;;;;;;;0.63;0.00;;;3.00;99.90;;;;;;5063063;28;20127;-79
2021/04/05 09:51:22;;;;;;;0.95;0.13;;;2.30;99.90;;;;;;5060301;28;20404;-78
2021/04/05 09:54:09;;;;;;;1.98;0.08;;;1.70;99.90;;;;;;5057037;28;20172;-79
2021/04/05 09:56:44;;;;;;;2.75;0.00;;;2.30;99.90;;;;;;5064713;28;20032;-78
2021/04/05 09:59:15;;;;;;;1.75;0.00;;;2.50;99.90;;;;;;5066995;28;20029;-79
2021/04/05 10:01:42;;;;;;;3.15;0.00;;;2.80;99.90;;;;;;5047305;28;20029;-78
2021/04/05 10:04:11;;;;;;;1.75;0.00;;;2.90;99.90;;;;;;5060184;28;20123;-79
2021/04/05 10:06:38;;;;;;;5.60;0.20;;;3.30;99.90;;;;;;5070692;22;21875;-79
2021/04/05 10:09:06;;;;;;;0.85;0.10;;;3.20;99.90;;;;;;5063599;28;20127;-79
2021/04/05 10:11:35;;;;;;;2.78;0.10;;;3.30;99.90;;;;;;5041481;28;20096;-79
2021/04/05 10:14:10;;;;;;;3.87;0.10;;;3.40;99.90;;;;;;5054026;28;20071;-79
2021/04/05 10:16:38;;;;;;;2.75;0.20;;;3.40;99.90;;;;;;5062875;28;20464;-78
2021/04/05 10:19:10;;;;;;;2.63;0.40;;;3.40;99.90;;;;;;5081469;28;20029;-79
2021/04/05 10:21:57;;;;;;;7.00;0.57;;;3.70;99.90;;;;;;5061493;28;20035;-79
2021/04/05 10:24:24;;;;;;;5.65;0.55;;;3.80;99.90;;;;;;5062754;28;20451;-79
2021/04/05 10:26:52;;;;;;;8.05;1.15;;;4.10;99.90;;;;;;5050330;28;20045;-78
2021/04/05 10:29:20;;;;;;;8.57;2.03;;;4.00;99.90;;;;;;5065675;28;20040;-79
2021/04/05 10:31:48;;;;;;;4.45;0.68;;;4.10;99.90;;;;;;5062875;28;20029;-79
2021/04/05 10:34:16;;;;;;;6.43;0.30;;;4.00;99.90;;;;;;5059131;28;20039;-78
2021/04/05 10:36:48;;;;;;;5.28;0.25;;;4.00;99.90;;;;;;5050016;28;20059;-78
2021/04/05 10:39:14;;;;;;;3.53;0.30;;;3.80;99.90;;;;;;5063883;28;20082;-78
2021/04/05 10:42:08;;;;;;;3.03;0.20;;;3.70;99.90;;;;;;5062595;28;20032;-78
2021/04/05 10:44:39;;;;;;;2.75;0.20;;;2.90;99.90;;;;;;5043025;28;20101;-78
2021/04/05 10:47:14;;;;;;;6.65;0.20;;;2.90;99.90;;;;;;5057711;28;20032;-78
2021/04/05 10:49:40;;;;;;;5.47;0.30;;;3.00;99.90;;;;;;5066334;28;20043;-78
2021/04/05 10:52:11;;;;;;;6.55;0.30;;;3.00;99.90;;;;;;5048731;28;20082;-78
2021/04/05 10:54:42;;;;;;;4.97;0.22;;;3.00;99.90;;;;;;5057559;28;20035;-78
2021/04/05 10:57:32;;;;;;;11.02;0.45;;;3.30;99.90;;;;;;5053408;28;20032;-76
2021/04/05 11:00:02;;;;;;;5.53;0.20;;;3.70;99.90;;;;;;5044856;28;20029;-79
2021/04/05 11:02:42;;;;;;;3.15;0.30;;;3.90;99.90;;;;;;5059607;28;20028;-78
2021/04/05 11:05:12;;;;;;;3.47;0.20;;;3.80;99.90;;;;;;5076462;28;20040;-78
2021/04/05 11:07:42;;;;;;;;;;;3.50;99.90;;;;;;5049790;28;20104;-78
2021/04/05 11:10:16;;;;;;;3.42;0.20;;;3.50;99.90;;;;;;5030209;28;20280;-79
2021/04/05 11:12:44;;;;;;;9.25;0.63;;;4.40;99.90;;;;;;5035216;28;20061;-78
2021/04/05 11:15:18;;;;;;;5.20;0.30;;;4.50;99.90;;;;;;5030247;28;20042;-78
2021/04/05 11:17:47;;;;;;;3.28;0.20;;;4.90;99.90;;;;;;5041913;28;20048;-78
2021/04/05 11:20:14;;;;;;;5.03;0.30;;;4.80;99.90;;;;;;5026555;28;20112;-79
2021/04/05 11:22:41;;;;;;;2.30;0.20;;;4.90;99.90;;;;;;5046866;28;20044;-79
2021/04/05 11:25:12;;;;;;;3.47;0.10;;;3.80;99.90;;;;;;5042791;28;20116;-79
2021/04/05 11:27:46;;;;;;;9.15;0.25;;;2.50;99.90;;;;;;5040521;28;20037;-78
2021/04/05 11:30:22;;;;;;;2.75;0.20;;;1.10;99.90;;;;;;5038527;28;20025;-77
2021/04/05 11:32:52;;;;;;;5.72;0.10;;;0.90;99.90;;;;;;5034642;28;20033;-78
2021/04/05 11:35:20;;;;;;;6.00;0.20;;;0.60;99.90;;;;;;5039448;28;20045;-77
2021/04/05 11:37:48;;;;;;;1.60;0.10;;;0.50;99.90;;;;;;5042701;28;20029;-77
2021/04/05 11:40:17;;;;;;;2.20;0.10;;;0.70;99.90;;;;;;5026139;28;20033;-77
2021/04/05 11:42:47;;;;;;;3.08;0.10;;;1.10;99.90;;;;;;5041157;28;20108;-78
2021/04/05 11:45:28;;;;;;;2.75;0.10;;;1.30;99.90;;;;;;5025977;28;20034;-78
2021/04/05 11:47:56;;;;;;;3.33;0.20;;;1.30;99.90;;;;;;5025531;28;20124;-78
2021/04/05 11:50:24;;;;;;;4.03;0.20;;;1.70;99.90;;;;;;5042378;28;20029;-78
2021/04/05 11:53:16;;;;;;;6.93;0.20;;;2.50;99.90;;;;;;5041025;28;20033;-79
2021/04/05 11:55:43;;;;;;;4.95;0.15;;;2.90;99.90;;;;;;5044426;28;20079;-78
2021/04/05 11:58:30;;;;;;;3.90;0.20;;;3.10;99.90;;;;;;5045967;28;20125;-78
2021/04/05 12:01:02;;;;;;;3.03;0.13;;;3.60;99.90;;;;;;5042221;28;20111;-78
2021/04/05 12:03:33;;;;;;;4.78;0.30;;;4.20;99.90;;;;;;5047044;28;20354;-78
2021/04/05 12:06:06;;;;;;;6.28;0.20;;;3.80;99.90;;;;;;5045431;28;20041;-78
2021/04/05 12:08:43;;;;;;;4.18;0.40;;;4.20;99.90;;;;;;5058942;28;20049;-78
2021/04/05 12:11:09;;;;;;;9.25;0.28;;;4.50;99.90;;;;;;5060018;28;20037;-77
2021/04/05 12:13:41;;;;;;;3.08;0.20;;;4.70;99.90;;;;;;5046643;28;20033;-78
2021/04/05 12:16:08;;;;;;;6.72;0.30;;;4.80;99.90;;;;;;5059019;28;20036;-78
2021/04/05 12:18:35;;;;;;;10.27;0.55;;;4.70;99.90;;;;;;5058364;28;20481;-77
2021/04/05 12:21:12;;;;;;;4.75;0.30;;;4.60;99.90;;;;;;5064374;28;20033;-78
2021/04/05 12:23:40;;;;;;;6.85;0.10;;;4.70;99.90;;;;;;5048497;28;20033;-78
2021/04/05 12:26:07;;;;;;;2.00;0.15;;;5.00;99.90;;;;;;5047012;28;20068;-78
2021/04/05 12:28:37;;;;;;;3.25;0.32;;;4.80;99.90;;;;;;5062468;28;20045;-78
2021/04/05 12:31:05;;;;;;;2.33;0.10;;;5.20;99.90;;;;;;5059348;28;20550;-78
2021/04/05 12:33:35;;;;;;;1.40;0.10;;;5.00;99.90;;;;;;5065023;28;20423;-79
2021/04/05 12:36:03;;;;;;;1.55;0.10;;;5.20;99.90;;;;;;5074749;28;20025;-78
2021/04/05 12:38:36;;;;;;;6.68;0.25;;;5.30;99.90;;;;;;5054936;28;20116;-79
2021/04/05 12:41:04;;;;;;;4.57;0.10;;;5.80;99.90;;;;;;5062380;28;20036;-78
2021/04/05 12:43:34;;;;;;;2.63;0.15;;;5.10;99.90;;;;;;5061197;28;20053;-78
2021/04/05 12:46:05;;;;;;;4.10;0.70;;;4.80;99.90;;;;;;5074610;28;20040;-78
2021/04/05 12:48:33;;;;;;;3.47;0.10;;;4.40;99.90;;;;;;5061382;28;20094;-78
2021/04/05 12:51:03;;;;;;;1.67;0.10;;;3.90;99.90;;;;;;5064105;28;20104;-79
2021/04/05 12:53:30;;;;;;;3.30;0.20;;;2.60;99.90;;;;;;5046058;28;20034;-78
2021/04/05 12:55:58;;;;;;;3.10;0.15;;;2.10;99.90;;;;;;5050209;28;20401;-78
2021/04/05 12:58:33;;;;;;;2.10;0.13;;;2.30;99.90;;;;;;5041753;28;20241;-78
2021/04/05 13:01:00;;;;;;;2.85;0.10;;;2.60;99.90;;;;;;5072985;28;20090;-79
2021/04/05 13:03:52;;;;;;;4.22;0.15;;;2.70;99.90;;;;;;5060808;28;20037;-78
2021/04/05 13:06:23;;;;;;;4.13;0.30;;;3.20;99.90;;;;;;5045592;28;20041;-79
2021/04/05 13:08:57;;;;;;;2.92;0.10;;;3.70;99.90;;;;;;5075282;28;20056;-79
2021/04/05 13:11:43;;;;;;;2.60;0.20;;;4.30;99.90;;;;;;5059595;28;20032;-79
2021/04/05 13:14:10;;;;;;;2.58;0.10;;;4.70;99.90;;;;;;5035769;28;20045;-79
2021/04/05 13:16:46;;;;;;;6.82;0.20;;;4.80;99.90;;;;;;5057523;28;20040;-79
2021/04/05 13:19:16;;;;;;;2.63;0.43;;;4.90;99.90;;;;;;5064357;28;20071;-79
2021/04/05 13:21:43;;;;;;;1.92;0.08;;;4.80;99.90;;;;;;5057567;28;20436;-78
2021/04/05 13:24:30;;;;;;;1.73;0.10;;;4.90;99.90;;;;;;5051183;28;20226;-79